Time;durP1;ratioP1;P1;durP2;ratioP2;P2;SDS_P1;SDS_P2;PMS_P1;PMS_P2;Temp;Humidity;BMP_temperature;BMP_pressure;BME280_temperature;BME280_humidity;BME280_pressure;Samples;Min_cycle;Max_cycle;Signal;HPM_P1;HPM_P2
2022/11/29 00:01:54;;;;;;;;;;;;;;;;;;5066444;28;19904;-75
2022/11/29 00:04:20;;;;;;;;;;;;;;;;;;5062828;28;19908;-76
2022/11/29 00:06:46;;;;;;;;;;;;;;;;;;5062555;28;19904;-76
2022/11/29 00:09:12;;;;;;;;;;;;;;;;;;5056451;28;20020;-75
2022/11/29 00:14:22;;;;;;;;;;;;;;;;;;5062079;28;19970;-75
2022/11/29 00:16:48;;;;;;;;;;;;;;;;;;5065774;28;20366;-75
2022/11/29 00:19:14;;;;;;;;;;;;;;;;;;5069213;28;19947;-74
2022/11/29 00:21:40;;;;;;;;;;;;;;;;;;5068594;28;19909;-75
2022/11/29 00:24:06;;;;;;;;;;;;;;;;;;5057633;28;19915;-74
2022/11/29 00:26:32;;;;;;;;;;;;;;;;;;5067620;28;19969;-75
2022/11/29 00:28:57;;;;;;;;;;;;;;;;;;5066021;28;20409;-74
2022/11/29 00:31:23;;;;;;;;;;;;;;;;;;5069205;28;20022;-75
2022/11/29 00:33:49;;;;;;;;;;;;;;;;;;5067942;28;19908;-75
2022/11/29 00:36:15;;;;;;;;;;;;;;;;;;5063509;28;19908;-75
2022/11/29 00:38:41;;;;;;;;;;;;;;;;;;5055802;28;19965;-75
2022/11/29 00:41:07;;;;;;;;;;;;;;;;;;5067643;28;20361;-75
2022/11/29 00:43:33;;;;;;;;;;;;;;;;;;5065844;28;20255;-75
2022/11/29 00:45:59;;;;;;;;;;;;;;;;;;5058487;28;20013;-75
2022/11/29 00:48:24;;;;;;;;;;;;;;;;;;5059746;28;20003;-74
2022/11/29 00:50:50;;;;;;;;;;;;;;;;;;5054147;28;19973;-76
2022/11/29 00:53:16;;;;;;;;;;;;;;;;;;5067955;28;19908;-75
2022/11/29 00:55:44;;;;;;;;;;;;;;;;;;5062317;28;19991;-75
2022/11/29 00:58:10;;;;;;;;;;;;;;;;;;5060509;28;19946;-75
2022/11/29 01:00:36;;;;;;;;;;;;;;;;;;5063093;28;20024;-74
2022/11/29 01:03:02;;;;;;;;;;;;;;;;;;5066830;28;19913;-75
2022/11/29 01:05:28;;;;;;;;;;;;;;;;;;5066645;28;19916;-75
2022/11/29 01:07:53;;;;;;;;;;;;;;;;;;5059132;28;19909;-75
2022/11/29 01:10:19;;;;;;;;;;;;;;;;;;5063574;28;19914;-75
2022/11/29 01:12:45;;;;;;;;;;;;;;;;;;5063504;28;19908;-74
2022/11/29 01:15:11;;;;;;;;;;;;;;;;;;5061988;28;19966;-75
2022/11/29 01:17:37;;;;;;;;;;;;;;;;;;5066989;28;19956;-75
2022/11/29 01:20:03;;;;;;;;;;;;;;;;;;5066356;28;19912;-75
2022/11/29 01:22:28;;;;;;;;;;;;;;;;;;5064081;28;19913;-75
2022/11/29 01:24:54;;;;;;;;;;;;;;;;;;5068192;28;19999;-75
2022/11/29 01:27:20;;;;;;;;;;;;;;;;;;5068205;28;19915;-75
2022/11/29 01:29:46;;;;;;;;;;;;;;;;;;5057779;28;19908;-74
2022/11/29 01:32:12;;;;;;;;;;;;;;;;;;5055679;28;19920;-75
2022/11/29 01:34:38;;;;;;;;;;;;;;;;;;5063366;28;20375;-75
2022/11/29 01:37:03;;;;;;;;;;;;;;;;;;5067844;28;19916;-75
2022/11/29 01:39:29;;;;;;;;;;;;;;;;;;5064185;28;19912;-74
2022/11/29 01:41:55;;;;;;;;;;;;;;;;;;5059602;28;19927;-75
2022/11/29 01:44:21;;;;;;;;;;;;;;;;;;5066250;28;19908;-74
2022/11/29 01:46:47;;;;;;;;;;;;;;;;;;5065623;28;20144;-74
2022/11/29 01:49:13;;;;;;;;;;;;;;;;;;5064731;28;19920;-75
2022/11/29 01:51:38;;;;;;;;;;;;;;;;;;5065458;28;19916;-75
2022/11/29 01:54:04;;;;;;;;;;;;;;;;;;5061106;28;19912;-75
2022/11/29 01:56:30;;;;;;;;;;;;;;;;;;5065263;28;20111;-75
2022/11/29 01:58:56;;;;;;;;;;;;;;;;;;5067379;28;19950;-74
2022/11/29 02:01:22;;;;;;;;;;;;;;;;;;5064387;28;20389;-74
2022/11/29 02:03:48;;;;;;;;;;;;;;;;;;5065461;28;20408;-75
2022/11/29 02:06:14;;;;;;;;;;;;;;;;;;5063680;28;19908;-75
2022/11/29 02:08:39;;;;;;;;;;;;;;;;;;5062609;28;20354;-75
2022/11/29 02:11:05;;;;;;;;;;;;;;;;;;5065930;28;20629;-75
2022/11/29 02:13:31;;;;;;;;;;;;;;;;;;5062989;28;19970;-75
2022/11/29 02:15:57;;;;;;;;;;;;;;;;;;5062573;28;19908;-75
2022/11/29 02:18:23;;;;;;;;;;;;;;;;;;5067660;28;20007;-74
2022/11/29 02:20:49;;;;;;;;;;;;;;;;;;5064494;28;19938;-75
2022/11/29 02:23:14;;;;;;;;;;;;;;;;;;5057083;28;19909;-74
2022/11/29 02:25:40;;;;;;;;;;;;;;;;;;5059059;28;20434;-75
2022/11/29 02:28:06;;;;;;;;;;;;;;;;;;5066790;28;19908;-75
2022/11/29 02:30:32;;;;;;;;;;;;;;;;;;5065819;28;19912;-74
2022/11/29 02:32:58;;;;;;;;;;;;;;;;;;5057557;28;19947;-74
2022/11/29 02:35:24;;;;;;;;;;;;;;;;;;5055115;28;19913;-75
2022/11/29 02:37:49;;;;;;;;;;;;;;;;;;5063840;28;19916;-75
2022/11/29 02:40:15;;;;;;;;;;;;;;;;;;5069839;28;19909;-75
2022/11/29 02:42:50;;;;;;;;;;;;;;;;;;5069345;28;19915;-75
2022/11/29 02:45:16;;;;;;;;;;;;;;;;;;5068347;28;19918;-74
2022/11/29 02:47:42;;;;;;;;;;;;;;;;;;5065592;28;19909;-75
2022/11/29 02:50:08;;;;;;;;;;;;;;;;;;5070104;28;20011;-75
2022/11/29 02:52:33;;;;;;;;;;;;;;;;;;5067861;28;20040;-75
2022/11/29 02:54:59;;;;;;;;;;;;;;;;;;5065791;28;19912;-75
2022/11/29 02:57:25;;;;;;;;;;;;;;;;;;5068438;28;19916;-75
2022/11/29 02:59:51;;;;;;;;;;;;;;;;;;5069654;28;20290;-75
2022/11/29 03:02:17;;;;;;;;;;;;;;;;;;5066759;28;19908;-74
2022/11/29 03:04:43;;;;;;;;;;;;;;;;;;5064672;28;20316;-74
2022/11/29 03:07:09;;;;;;;;;;;;;;;;;;5065191;28;19908;-75
2022/11/29 03:09:34;;;;;;;;;;;;;;;;;;5064847;28;19915;-75
2022/11/29 03:12:00;;;;;;;;;;;;;;;;;;5065341;28;19905;-75
2022/11/29 03:14:26;;;;;;;;;;;;;;;;;;5069691;28;19913;-74
2022/11/29 03:16:52;;;;;;;;;;;;;;;;;;5055909;28;19920;-75
2022/11/29 03:19:18;;;;;;;;;;;;;;;;;;5057780;28;19909;-75
2022/11/29 03:21:44;;;;;;;;;;;;;;;;;;5067251;28;20546;-75
2022/11/29 03:24:09;;;;;;;;;;;;;;;;;;5062951;28;19987;-75
2022/11/29 03:26:35;;;;;;;;;;;;;;;;;;5061282;28;19962;-74
2022/11/29 03:29:05;;;;;;;;;;;;;;;;;;5065132;28;19934;-74
2022/11/29 03:31:31;;;;;;;;;;;;;;;;;;5062171;28;19932;-75
2022/11/29 03:33:57;;;;;;;;;;;;;;;;;;5061989;28;20371;-75
2022/11/29 03:36:23;;;;;;;;;;;;;;;;;;5061743;28;19908;-75
2022/11/29 03:38:49;;;;;;;;;;;;;;;;;;5064978;28;19919;-75
2022/11/29 03:41:15;;;;;;;;;;;;;;;;;;5067479;28;19909;-75
2022/11/29 03:43:40;;;;;;;;;;;;;;;;;;5063805;28;19954;-76
2022/11/29 03:46:06;;;;;;;;;;;;;;;;;;5060426;28;19913;-75
2022/11/29 03:48:32;;;;;;;;;;;;;;;;;;5060595;28;19912;-74
2022/11/29 03:50:58;;;;;;;;;;;;;;;;;;5064210;28;19990;-74
2022/11/29 03:53:24;;;;;;;;;;;;;;;;;;5065743;28;19908;-75
2022/11/29 03:55:50;;;;;;;;;;;;;;;;;;5069272;28;19913;-74
2022/11/29 03:58:15;;;;;;;;;;;;;;;;;;5066791;28;19916;-74
2022/11/29 04:00:41;;;;;;;;;;;;;;;;;;5060106;28;19959;-74
2022/11/29 04:03:07;;;;;;;;;;;;;;;;;;5058798;28;19915;-75
2022/11/29 04:05:33;;;;;;;;;;;;;;;;;;5065048;28;19908;-75
2022/11/29 04:07:59;;;;;;;;;;;;;;;;;;5065999;28;19908;-75
2022/11/29 04:10:26;;;;;;;;;;;;;;;;;;5059717;28;19908;-75
2022/11/29 04:12:51;;;;;;;;;;;;;;;;;;5056382;28;20338;-74
2022/11/29 04:15:17;;;;;;;;;;;;;;;;;;5058239;28;19912;-74
2022/11/29 04:17:43;;;;;;;;;;;;;;;;;;5063116;28;19939;-75
2022/11/29 04:20:09;;;;;;;;;;;;;;;;;;5062963;28;19908;-75
2022/11/29 04:22:35;;;;;;;;;;;;;;;;;;5066672;28;19958;-74
2022/11/29 04:25:01;;;;;;;;;;;;;;;;;;5062483;28;19908;-75
2022/11/29 04:27:26;;;;;;;;;;;;;;;;;;5066280;28;20004;-75
2022/11/29 04:29:52;;;;;;;;;;;;;;;;;;5064816;28;19994;-74
2022/11/29 04:32:18;;;;;;;;;;;;;;;;;;5063279;28;19935;-74
2022/11/29 04:34:44;;;;;;;;;;;;;;;;;;5058081;28;19912;-75
2022/11/29 04:37:10;;;;;;;;;;;;;;;;;;5068898;28;19920;-75
2022/11/29 04:39:36;;;;;;;;;;;;;;;;;;5069683;28;19979;-75
2022/11/29 04:42:01;;;;;;;;;;;;;;;;;;5056386;28;20359;-75
2022/11/29 04:44:27;;;;;;;;;;;;;;;;;;5054831;28;20467;-75
2022/11/29 04:46:53;;;;;;;;;;;;;;;;;;5066293;28;20336;-75
2022/11/29 04:49:19;;;;;;;;;;;;;;;;;;5062174;28;20259;-74
2022/11/29 04:51:45;;;;;;;;;;;;;;;;;;5062973;28;19978;-74
2022/11/29 04:54:11;;;;;;;;;;;;;;;;;;5067850;28;20290;-75
2022/11/29 04:56:37;;;;;;;;;;;;;;;;;;5066741;28;19959;-75
2022/11/29 04:59:02;;;;;;;;;;;;;;;;;;5060956;28;20119;-75
2022/11/29 05:01:28;;;;;;;;;;;;;;;;;;5058651;28;20397;-75
2022/11/29 05:03:54;;;;;;;;;;;;;;;;;;5068237;28;19905;-75
2022/11/29 05:06:20;;;;;;;;;;;;;;;;;;5068859;28;19958;-75
2022/11/29 05:08:46;;;;;;;;;;;;;;;;;;5059134;28;19919;-75
2022/11/29 05:11:12;;;;;;;;;;;;;;;;;;5069735;28;19940;-76
2022/11/29 05:13:38;;;;;;;;;;;;;;;;;;5059298;28;19923;-75
2022/11/29 05:16:03;;;;;;;;;;;;;;;;;;5069297;28;19908;-76
2022/11/29 05:18:29;;;;;;;;;;;;;;;;;;5062882;28;19920;-76
2022/11/29 05:20:55;;;;;;;;;;;;;;;;;;5068819;28;19915;-76
2022/11/29 05:23:21;;;;;;;;;;;;;;;;;;5065810;28;19908;-76
2022/11/29 05:25:47;;;;;;;;;;;;;;;;;;5061811;28;20003;-76
2022/11/29 05:28:15;;;;;;;;;;;4.80;99.90;;;;;;5066241;28;19909;-76
2022/11/29 05:30:54;;;;;;;;;;;4.20;99.90;;;;;;5067259;28;19909;-76
2022/11/29 05:33:38;;;;;;;;;;;4.20;99.90;;;;;;5057150;28;19904;-76
2022/11/29 05:36:09;;;;;;;;;;;4.30;99.90;;;;;;5065099;28;19908;-76
2022/11/29 05:38:53;;;;;;;;;;;4.30;99.90;;;;;;5062820;28;19913;-76
2022/11/29 05:41:31;;;;;;;;;;;4.20;99.90;;;;;;5061253;28;20410;-78
2022/11/29 05:44:16;;;;;;;;;;;4.30;99.90;;;;;;5067937;28;19940;-76
2022/11/29 05:46:42;;;;;;;;;;;;;;;;;;5063442;28;19908;-76
2022/11/29 05:49:08;;;;;;;;;;;;;;;;;;5060507;28;19970;-76
2022/11/29 05:51:34;;;;;;;;;;;;;;;;;;5059043;28;19951;-77
2022/11/29 05:54:00;;;;;;;;;;;;;;;;;;5066149;28;19904;-76
2022/11/29 05:56:25;;;;;;;;;;;;;;;;;;5057798;28;19916;-78
2022/11/29 05:58:51;;;;;;;;;;;;;;;;;;5054947;28;19913;-77
2022/11/29 06:01:17;;;;;;;;;;;;;;;;;;5062079;28;20328;-77
2022/11/29 06:03:43;;;;;;;;;;;;;;;;;;5067373;28;20504;-78
2022/11/29 06:06:09;;;;;;;;;;;;;;;;;;5066358;28;19969;-84
2022/11/29 06:08:35;;;;;;;;;;;;;;;;;;5055254;28;19909;-78
2022/11/29 06:11:00;;;;;;;;;;;;;;;;;;5063961;28;19940;-81
2022/11/29 06:13:26;;;;;;;;;;;;;;;;;;5066917;28;20044;-76
2022/11/29 06:15:52;;;;;;;;;;;;;;;;;;5048724;28;20256;-75
2022/11/29 06:18:20;;;;;;;;;;;;;;;;;;5051892;28;19927;-75
2022/11/29 06:20:46;;;;;;;;;;;;;;;;;;5062606;28;19916;-75
2022/11/29 06:23:11;;;;;;;;;;;;;;;;;;5060576;28;19932;-78
2022/11/29 06:25:38;;;;;;;;;;;;;;;;;;5057243;28;19904;-75
2022/11/29 06:28:04;;;;;;;;;;;;;;;;;;5065759;28;20462;-75
2022/11/29 06:30:30;;;;;;;;;;;;;;;;;;5063451;28;19912;-75
2022/11/29 06:32:55;;;;;;;;;;;;;;;;;;5064860;28;19958;-76
2022/11/29 06:35:21;;;;;;;;;;;;;;;;;;5064529;28;19931;-76
2022/11/29 06:37:47;;;;;;;;;;;;;;;;;;5063382;28;19975;-74
2022/11/29 06:40:13;;;;;;;;;;;;;;;;;;5068167;28;19912;-75
2022/11/29 06:42:39;;;;;;;;;;;;;;;;;;5065547;28;19908;-75
2022/11/29 06:45:05;;;;;;;;;;;;;;;;;;5060024;28;19943;-75
2022/11/29 06:47:30;;;;;;;;;;;;;;;;;;5058820;28;20270;-75
2022/11/29 06:49:56;;;;;;;;;;;;;;;;;;5067875;28;19971;-75
2022/11/29 06:52:22;;;;;;;;;;;;;;;;;;5066520;28;19912;-75
2022/11/29 06:54:48;;;;;;;;;;;;;;;;;;5066490;28;20008;-76
2022/11/29 06:57:14;;;;;;;;;;;;;;;;;;5065720;28;19912;-76
2022/11/29 06:59:40;;;;;;;;;;;;;;;;;;5066980;28;19912;-76
2022/11/29 07:02:05;;;;;;;;;;;;;;;;;;5066101;28;19916;-75
2022/11/29 07:04:31;;;;;;;;;;;;;;;;;;5073145;28;19915;-76
2022/11/29 07:06:57;;;;;;;;;;;;;;;;;;5064973;28;19931;-76
2022/11/29 07:09:23;;;;;;;;;;;;;;;;;;5066582;28;19908;-75
2022/11/29 07:11:49;;;;;;;;;;;;;;;;;;5063792;28;19953;-75
2022/11/29 07:14:15;;;;;;;;;;;;;;;;;;5062464;28;19940;-76
2022/11/29 07:16:41;;;;;;;;;;;;;;;;;;5065106;28;19908;-75
2022/11/29 07:19:06;;;;;;;;;;;;;;;;;;5062656;28;20761;-75
2022/11/29 07:21:32;;;;;;;;;;;;;;;;;;5061870;28;19919;-76
2022/11/29 07:23:58;;;;;;;;;;;;;;;;;;5058878;28;20003;-76
2022/11/29 07:26:24;;;;;;;;;;;;;;;;;;5071012;28;19924;-76
2022/11/29 07:28:50;;;;;;;;;;;;;;;;;;5070695;28;20359;-76
2022/11/29 07:31:16;;;;;;;;;;;;;;;;;;5063083;28;20414;-76
2022/11/29 07:33:42;;;;;;;;;;;;;;;;;;5068862;28;20260;-76
2022/11/29 07:36:07;;;;;;;;;;;;;;;;;;5070189;28;20275;-75
2022/11/29 07:38:33;;;;;;;;;;;;;;;;;;5069034;28;19912;-76
2022/11/29 07:40:59;;;;;;;;;;;;;;;;;;5061818;28;19961;-76
2022/11/29 07:43:25;;;;;;;;;;;;;;;;;;5055586;28;19923;-76
2022/11/29 07:45:51;;;;;;;;;;;;;;;;;;5066559;28;20056;-76
2022/11/29 07:48:17;;;;;;;;;;;;;;;;;;5065339;28;19987;-75
2022/11/29 07:50:43;;;;;;;;;;;;;;;;;;5066251;28;19916;-76
2022/11/29 07:53:09;;;;;;;;;;;;;;;;;;5068070;28;19965;-76
2022/11/29 07:55:35;;;;;;;;;;;;;;;;;;5065822;28;19936;-77
2022/11/29 07:58:01;;;;;;;;;;;;;;;;;;5067287;28;19916;-78
2022/11/29 08:00:27;;;;;;;;;;;;;;;;;;5066812;28;19918;-81
2022/11/29 08:02:53;;;;;;;;;;;;;;;;;;5064695;28;19912;-80
2022/11/29 08:05:19;;;;;;;;;;;;;;;;;;5068663;28;20438;-79
2022/11/29 08:07:46;;;;;;;;;;;;;;;;;;5067978;28;19915;-80
2022/11/29 08:10:12;;;;;;;;;;;;;;;;;;5061066;28;19956;-79
2022/11/29 08:12:38;;;;;;;;;;;;;;;;;;5065537;28;19947;-79
2022/11/29 08:15:04;;;;;;;;;;;;;;;;;;5064261;28;20354;-81
2022/11/29 08:17:29;;;;;;;;;;;;;;;;;;5067389;28;20490;-80
2022/11/29 08:19:55;;;;;;;;;;;;;;;;;;5066486;28;19909;-80
2022/11/29 08:22:21;;;;;;;;;;;;;;;;;;5070110;28;19991;-81
2022/11/29 08:24:47;;;;;;;;;;;;;;;;;;5067791;28;19916;-84
2022/11/29 08:27:13;;;;;;;;;;;;;;;;;;5067030;28;19973;-86
2022/11/29 08:29:39;;;;;;;;;;;;;;;;;;5068525;28;19920;-87
2022/11/29 08:32:05;;;;;;;;;;;;;;;;;;5068767;28;20220;-80
2022/11/29 08:34:31;;;;;;;;;;;;;;;;;;5065747;28;19924;-79
2022/11/29 08:36:56;;;;;;;;;;;;;;;;;;5065435;28;19912;-81
2022/11/29 08:39:22;;;;;;;;;;;;;;;;;;5068715;28;19908;-80
2022/11/29 08:41:48;;;;;;;;;;;;;;;;;;5065835;28;19912;-83
2022/11/29 08:44:14;;;;;;;;;;;;;;;;;;5066629;28;19932;-78
2022/11/29 08:49:26;;;;;;;;;;;;;;;;;;5061328;28;20450;-79
2022/11/29 08:53:39;;;;;;;;;;;;;;;;;;5066277;28;20217;-79
2022/11/29 08:54:37;;;;;;;;;;;;;;;;;;5064827;28;19964;-79
2022/11/29 08:57:03;;;;;;;;;;;;;;;;;;5067695;28;20505;-79
2022/11/29 08:59:29;;;;;;;;;;;;;;;;;;5062124;28;20318;-79
2022/11/29 09:01:59;;;;;;;;;;;;;;;;;;5064105;28;19924;-79
2022/11/29 09:04:24;;;;;;;;;;;;;;;;;;5067480;28;20401;-80
2022/11/29 09:06:50;;;;;;;;;;;;;;;;;;5066865;28;19908;-83
2022/11/29 09:09:16;;;;;;;;;;;;;;;;;;5065724;28;19908;-77
2022/11/29 09:11:42;;;;;;;;;;;;;;;;;;5069938;28;19904;-84
2022/11/29 09:14:11;;;;;;;;;;;;;;;;;;5067122;28;20274;-82
2022/11/29 09:16:37;;;;;;;;;;;;;;;;;;5062174;28;19915;-82
2022/11/29 09:19:03;;;;;;;;;;;;;;;;;;5068880;28;20400;-82
2022/11/29 09:21:28;;;;;;;;;;;;;;;;;;5060462;28;19912;-83
2022/11/29 09:23:58;;;;;;;;;;;;;;;;;;5069045;28;19958;-82
2022/11/29 09:26:23;;;;;;;;;;;;;;;;;;5063120;28;19931;-82
2022/11/29 09:28:49;;;;;;;;;;;;;;;;;;5067533;28;20510;-82
2022/11/29 09:31:15;;;;;;;;;;;;;;;;;;5067577;28;20322;-83
2022/11/29 09:33:41;;;;;;;;;;;;;;;;;;5067687;28;19908;-82
2022/11/29 09:36:07;;;;;;;;;;;;;;;;;;5067929;28;19993;-82
2022/11/29 09:38:33;;;;;;;;;;;;;;;;;;5069256;28;19908;-82
2022/11/29 09:40:59;;;;;;;;;;;;;;;;;;5069000;28;19915;-83
2022/11/29 09:43:24;;;;;;;;;;;;;;;;;;5064205;28;19908;-83
2022/11/29 09:45:50;;;;;;;;;;;;;;;;;;5069485;28;19908;-83
2022/11/29 09:48:16;;;;;;;;;;;;;;;;;;5063088;28;19908;-82
2022/11/29 09:50:42;;;;;;;;;;;;;;;;;;5066577;28;19924;-82
2022/11/29 09:53:08;;;;;;;;;;;;;;;;;;5069100;28;20363;-82
2022/11/29 09:55:34;;;;;;;;;;;;;;;;;;5068828;28;19909;-82
2022/11/29 09:58:00;;;;;;;;;;;;;;;;;;5065710;28;19908;-83
2022/11/29 10:00:26;;;;;;;;;;;;;;;;;;5067384;28;19908;-83
2022/11/29 10:02:52;;;;;;;;;;;;;;;;;;5059232;28;20285;-83
2022/11/29 10:05:18;;;;;;;;;;;;;;;;;;5066558;28;19908;-81
2022/11/29 10:07:43;;;;;;;;;;;;;;;;;;5069460;28;19904;-81
2022/11/29 10:10:09;;;;;;;;;;;;;;;;;;5068528;28;19911;-82
2022/11/29 10:12:35;;;;;;;;;;;;;;;;;;5066214;28;21501;-82
2022/11/29 10:15:02;;;;;;;;;;;;;;;;;;5065315;28;20398;-82
2022/11/29 10:17:28;;;;;;;;;;;;;;;;;;5068636;28;20313;-81
2022/11/29 10:19:54;;;;;;;;;;;;;;;;;;5064141;28;19923;-82
2022/11/29 10:22:32;;;;;;;;;;;;;;;;;;5060043;28;19908;-82
2022/11/29 10:24:59;;;;;;;;;;;;;;;;;;5054762;28;19917;-80
2022/11/29 10:27:28;;;;;;;;;;;;;;;;;;5064353;28;19905;-81
2022/11/29 10:29:54;;;;;;;;;;;;;;;;;;5068277;28;19915;-81
2022/11/29 10:32:20;;;;;;;;;;;;;;;;;;5060361;28;20290;-82
2022/11/29 10:34:46;;;;;;;;;;;;;;;;;;5065304;28;20049;-82
2022/11/29 10:37:12;;;;;;;;;;;;;;;;;;5068190;28;20007;-82
2022/11/29 10:39:38;;;;;;;;;;;;;;;;;;5068444;28;19904;-82
2022/11/29 10:42:05;;;;;;;;;;;;;;;;;;5062478;28;19905;-82
2022/11/29 10:44:50;;;;;;;;;;;;;;;;;;5067583;28;20011;-82
2022/11/29 10:47:15;;;;;;;;;;;;;;;;;;5068105;28;19998;-82
2022/11/29 10:49:41;;;;;;;;;;;;;;;;;;5068405;28;19920;-81
2022/11/29 10:52:07;;;;;;;;;;;;;;;;;;5064033;28;19908;-81
2022/11/29 10:54:33;;;;;;;;;;;;;;;;;;5067873;28;19904;-81
2022/11/29 10:56:59;;;;;;;;;;;;;;;;;;5054249;28;19947;-82
2022/11/29 10:59:25;;;;;;;;;;;;;;;;;;5067841;28;19961;-82
2022/11/29 11:01:51;;;;;;;;;;;;;;;;;;5071386;28;19951;-82
2022/11/29 11:04:16;;;;;;;;;;;;;;;;;;5068933;28;21567;-82
2022/11/29 11:06:42;;;;;;;;;;;;;;;;;;5072747;28;19904;-82
2022/11/29 11:09:08;;;;;;;;;;;;;;;;;;5071881;28;20328;-82
2022/11/29 11:11:34;;;;;;;;;;;;;;;;;;5071639;28;19916;-82
2022/11/29 11:14:00;;;;;;;;;;;;;;;;;;5068411;28;19954;-82
2022/11/29 11:16:26;;;;;;;;;;;;;;;;;;5070082;28;20007;-84
2022/11/29 11:18:51;;;;;;;;;;;;;;;;;;5071823;28;20414;-82
2022/11/29 11:21:17;;;;;;;;;;;;;;;;;;5070720;28;20408;-82
2022/11/29 11:23:43;;;;;;;;;;;;;;;;;;5070202;28;19908;-81
2022/11/29 11:26:09;;;;;;;;;;;;;;;;;;5068920;28;19931;-81
2022/11/29 11:28:35;;;;;;;;;;;;;;;;;;5059730;28;20053;-82
2022/11/29 11:31:01;;;;;;;;;;;;;;;;;;5072214;28;19911;-82
2022/11/29 11:33:27;;;;;;;;;;;;;;;;;;5063336;28;19915;-81
2022/11/29 11:35:53;;;;;;;;;;;;;;;;;;5066467;28;19919;-81
2022/11/29 11:38:18;;;;;;;;;;;;;;;;;;5071685;28;20298;-82
2022/11/29 11:40:44;;;;;;;;;;;;;;;;;;5071314;28;19951;-82
2022/11/29 11:43:10;;;;;;;;;;;;;;;;;;5069787;28;19912;-82
2022/11/29 11:45:37;;;;;;;;;;;;;;;;;;5070355;28;19908;-81
2022/11/29 11:48:03;;;;;;;;;;;;;;;;;;5071321;28;19947;-81
2022/11/29 11:50:29;;;;;;;;;;;;;;;;;;5070756;28;20425;-81
2022/11/29 11:52:55;;;;;;;;;;;;;;;;;;5065410;28;19977;-81
2022/11/29 11:55:21;;;;;;;;;;;;;;;;;;5066470;28;20264;-81
2022/11/29 11:57:47;;;;;;;;;;;;;;;;;;5057739;28;19923;-82
2022/11/29 12:00:12;;;;;;;;;;;;;;;;;;5067015;28;19912;-82
2022/11/29 12:02:38;;;;;;;;;;;;;;;;;;5071049;28;19920;-82
2022/11/29 12:05:04;;;;;;;;;;;;;;;;;;5070742;28;19915;-82
2022/11/29 12:07:30;;;;;;;;;;;;;;;;;;5062110;28;19908;-82
2022/11/29 12:09:56;;;;;;;;;;;;;;;;;;5065805;28;19916;-82
2022/11/29 12:12:22;;;;;;;;;;;;;;;;;;5070906;28;19911;-81
2022/11/29 12:14:47;;;;;;;;;;;;;;;;;;5070915;28;20046;-81
2022/11/29 12:17:13;;;;;;;;;;;;;;;;;;5066415;28;19987;-82
2022/11/29 12:19:39;;;;;;;;;;;;;;;;;;5070741;28;19915;-81
2022/11/29 12:22:05;;;;;;;;;;;;;;;;;;5067883;28;19908;-81
2022/11/29 12:24:31;;;;;;;;;;;;;;;;;;5070465;28;20067;-81
2022/11/29 12:26:57;;;;;;;;;;;;;;;;;;5069254;28;19912;-81
2022/11/29 12:29:22;;;;;;;;;;;;;;;;;;5069858;28;19908;-81
2022/11/29 12:31:48;;;;;;;;;;;;;;;;;;5065727;28;20029;-81
2022/11/29 12:34:14;;;;;;;;;;;;;;;;;;5068683;28;19912;-81
2022/11/29 12:36:40;;;;;;;;;;;;;;;;;;5068380;28;20412;-82
2022/11/29 12:39:06;;;;;;;;;;;;;;;;;;5069875;28;20330;-82
2022/11/29 12:41:32;;;;;;;;;;;;;;;;;;5070493;28;19908;-82
2022/11/29 12:43:58;;;;;;;;;;;;;;;;;;5067137;28;19909;-82
2022/11/29 12:46:24;;;;;;;;;;;;;;;;;;5068895;28;19909;-82
2022/11/29 12:48:51;;;;;;;;;;;;;;;;;;5070371;28;19961;-83
2022/11/29 12:51:16;;;;;;;;;;;;;;;;;;5068745;28;19986;-83
2022/11/29 12:53:42;;;;;;;;;;;;;;;;;;5068537;28;19934;-82
2022/11/29 12:56:09;;;;;;;;;;;;;;;;;;5070010;28;19968;-81
2022/11/29 12:58:35;;;;;;;;;;;;;;;;;;5070039;28;19909;-81
2022/11/29 13:01:01;;;;;;;;;;;;;;;;;;5064564;28;19908;-82
2022/11/29 13:03:27;;;;;;;;;;;;;;;;;;5069331;28;19999;-81
2022/11/29 13:05:53;;;;;;;;;;;;;;;;;;5068434;28;19962;-81
2022/11/29 13:08:19;;;;;;;;;;;;;;;;;;5069497;28;19910;-81
2022/11/29 13:10:44;;;;;;;;;;;;;;;;;;5062806;28;19908;-81
2022/11/29 13:13:10;;;;;;;;;;;;;;;;;;5065614;28;19912;-81
2022/11/29 13:15:36;;;;;;;;;;;;;;;;;;5067911;28;19912;-80
2022/11/29 13:18:02;;;;;;;;;;;;;;;;;;5068124;28;19913;-80
2022/11/29 13:20:28;;;;;;;;;;;;;;;;;;5059781;28;19912;-80
2022/11/29 13:22:54;;;;;;;;;;;;;;;;;;5067595;28;19908;-81
2022/11/29 13:25:20;;;;;;;;;;;;;;;;;;5067188;28;19912;-81
2022/11/29 13:27:46;;;;;;;;;;;;;;;;;;5069476;28;19912;-81
2022/11/29 13:30:12;;;;;;;;;;;;;;;;;;5069682;28;19908;-81
2022/11/29 13:32:37;;;;;;;;;;;;;;;;;;5063346;28;19917;-81
2022/11/29 13:35:03;;;;;;;;;;;;;;;;;;5067625;28;19908;-81
2022/11/29 13:37:29;;;;;;;;;;;;;;;;;;5069193;28;19950;-81
2022/11/29 13:39:56;;;;;;;;;;;;;;;;;;5069107;28;20255;-82
2022/11/29 13:42:22;;;;;;;;;;;;;;;;;;5060438;28;19908;-81
2022/11/29 13:44:48;;;;;;;;;;;;;;;;;;5069283;28;19915;-82
2022/11/29 13:47:14;;;;;;;;;;;;;;;;;;5068202;28;19912;-82
2022/11/29 13:49:40;;;;;;;;;;;;;;;;;;5066148;28;19920;-81
2022/11/29 13:52:06;;;;;;;;;;;;;;;;;;5067808;28;19957;-81
2022/11/29 13:54:32;;;;;;;;;;;;;;;;;;5059773;28;19909;-81
2022/11/29 13:57:01;;;;;;;;;;;;;;;;;;5062285;28;19930;-82
2022/11/29 13:59:26;;;;;;;;;;;;;;;;;;5065722;28;19916;-81
2022/11/29 14:01:52;;;;;;;;;;;;;;;;;;5068815;28;20734;-81
2022/11/29 14:04:18;;;;;;;;;;;;;;;;;;5069002;28;20361;-81
2022/11/29 14:06:44;;;;;;;;;;;;;;;;;;5067224;28;22866;-81
2022/11/29 14:09:10;;;;;;;;;;;;;;;;;;5066934;28;19909;-81
2022/11/29 14:11:36;;;;;;;;;;;;;;;;;;5065799;28;19987;-81
2022/11/29 14:14:01;;;;;;;;;;;;;;;;;;5068359;28;19904;-81
2022/11/29 14:16:27;;;;;;;;;;;;;;;;;;5067703;28;19934;-81
2022/11/29 14:18:53;;;;;;;;;;;;;;;;;;5060014;28;20011;-81
2022/11/29 14:21:19;;;;;;;;;;;;;;;;;;5051582;28;19982;-81
2022/11/29 14:23:45;;;;;;;;;;;;;;;;;;5066819;28;19973;-81
2022/11/29 14:26:11;;;;;;;;;;;;;;;;;;5068405;28;20469;-81
2022/11/29 14:28:38;;;;;;;;;;;;;;;;;;5066046;28;20042;-80
2022/11/29 14:31:03;;;;;;;;;;;;;;;;;;5067005;28;19932;-81
2022/11/29 14:33:29;;;;;;;;;;;;;;;;;;5066307;28;20204;-81
2022/11/29 14:35:55;;;;;;;;;;;;;;;;;;5068023;28;19923;-81
2022/11/29 14:38:22;;;;;;;;;;;;;;;;;;5067278;28;19951;-81
2022/11/29 14:40:48;;;;;;;;;;;;;;;;;;5065949;28;19908;-81
2022/11/29 14:43:14;;;;;;;;;;;;;;;;;;5062283;28;19917;-81
2022/11/29 14:45:40;;;;;;;;;;;;;;;;;;5066189;28;19920;-82
2022/11/29 14:48:06;;;;;;;;;;;;;;;;;;5063290;28;19951;-77
2022/11/29 14:50:32;;;;;;;;;;;;;;;;;;5065844;28;19921;-77
2022/11/29 14:52:58;;;;;;;;;;;;;;;;;;5065641;28;19912;-76
2022/11/29 14:55:24;;;;;;;;;;;;;;;;;;5053880;28;19933;-73
2022/11/29 14:57:50;;;;;;;;;;;;;;;;;;5063340;28;20484;-73
2022/11/29 15:00:16;;;;;;;;;;;;;;;;;;5067497;28;19908;-74
2022/11/29 15:02:42;;;;;;;;;;;;;;;;;;5066232;28;19919;-75
2022/11/29 15:05:08;;;;;;;;;;;;;;;;;;5065798;28;19908;-75
2022/11/29 15:07:33;;;;;;;;;;;;;;;;;;5064891;28;19909;-75
2022/11/29 15:09:59;;;;;;;;;;;;;;;;;;5066799;28;19936;-75
2022/11/29 15:12:25;;;;;;;;;;;;;;;;;;5066666;28;19962;-76
2022/11/29 15:14:51;;;;;;;;;;;;;;;;;;5066219;28;19914;-75
2022/11/29 15:17:17;;;;;;;;;;;;;;;;;;5066757;28;19912;-75
2022/11/29 15:19:43;;;;;;;;;;;;;;;;;;5062485;28;19954;-75
2022/11/29 15:22:09;;;;;;;;;;;;;;;;;;5064889;28;20007;-73
2022/11/29 15:24:35;;;;;;;;;;;;;;;;;;5052831;28;20004;-75
2022/11/29 15:27:01;;;;;;;;;;;;;;;;;;5066276;28;19908;-72
2022/11/29 15:29:27;;;;;;;;;;;;;;;;;;5061760;28;19951;-75
2022/11/29 15:31:53;;;;;;;;;;;;;;;;;;5062077;28;19912;-75
2022/11/29 15:34:19;;;;;;;;;;;;;;;;;;5063225;28;19920;-78
2022/11/29 15:36:53;;;;;;;;;;;;;;;;;;5067027;28;19912;-79
2022/11/29 15:39:19;;;;;;;;;;;;;;;;;;5064328;28;19916;-79
2022/11/29 15:41:55;;;;;;;;;;;;;;;;;;;;;
2022/11/29 15:44:24;;;;;;;;;;;;;;;;;;5052723;28;20296;-79
2022/11/29 15:46:50;;;;;;;;;;;;;;;;;;5055524;28;19913;-79
2022/11/29 15:49:17;;;;;;;;;;;;;;;;;;5065895;28;20312;-78
2022/11/29 15:51:42;;;;;;;;;;;;;;;;;;5063518;28;19919;-76
2022/11/29 15:54:08;;;;;;;;;;;;;;;;;;5060769;28;19919;-77
2022/11/29 15:56:34;;;;;;;;;;;;;;;;;;5062654;28;19908;-77
2022/11/29 15:59:00;;;;;;;;;;;;;;;;;;5061079;28;19923;-77
2022/11/29 16:01:26;;;;;;;;;;;;;;;;;;5066518;28;20275;-76
2022/11/29 16:03:52;;;;;;;;;;;;;;;;;;5068281;28;20266;-77
2022/11/29 16:06:18;;;;;;;;;;;;;;;;;;5064131;28;19912;-81
2022/11/29 16:08:43;;;;;;;;;;;;;;;;;;5059585;28;19955;-78
2022/11/29 16:11:09;;;;;;;;;;;;;;;;;;5060687;28;19908;-79
2022/11/29 16:13:35;;;;;;;;;;;;;;;;;;5066518;28;19908;-79
2022/11/29 16:16:01;;;;;;;;;;;;;;;;;;5060517;28;19957;-77
2022/11/29 16:18:27;;;;;;;;;;;;;;;;;;5060826;28;19917;-78
2022/11/29 16:20:53;;;;;;;;;;;;;;;;;;5057544;28;19913;-78
2022/11/29 16:23:19;;;;;;;;;;;;;;;;;;5066221;28;19919;-82
2022/11/29 16:25:45;;;;;;;;;;;;;;;;;;5061610;28;20554;-77
2022/11/29 16:28:10;;;;;;;;;;;;;;;;;;5057490;28;20000;-78
2022/11/29 16:30:36;;;;;;;;;;;;;;;;;;5063583;28;19908;-79
2022/11/29 16:33:02;;;;;;;;;;;;;;;;;;5066961;28;19916;-79
2022/11/29 16:35:28;;;;;;;;;;;;;;;;;;5056549;28;19987;-78
2022/11/29 16:37:54;;;;;;;;;;;;;;;;;;5065020;28;20030;-80
2022/11/29 16:40:20;;;;;;;;;;;;;;;;;;5064932;28;20026;-82
2022/11/29 16:42:46;;;;;;;;;;;;;;;;;;5062981;28;19930;-82